SBI2161 UUDD-URWA
Flight info
| Callsign | SBI2161 |
|---|---|
| Flight time | 1h 44m |
| Altitude | 37000 |
| Route | TOGMO4Q TOGMO M56 ABAGI B105 NATIT DCT MOLED DCT LIDUS G242 OMIRA OMIRA5K |
| Aircraft | A320/M-SDFGIJ1RWY/LB1 |
Departure
| Time | 2026-05-04 10:52 |
|---|---|
| Airport | Domodedovo International Airport (UUDD) |
Arrival
| Time | 2026-05-04 12:36 |
|---|---|
| Airport | Astrakhan Narimanovo Boris M. Kustodiev International Airport (URWA) |
| Time | Latitude | Longitude | Altitude | Speed | Heading |
|---|---|---|---|---|---|
| 2026-05-04 10:39 | 55.41138 | 37.89632 | 578 ft | 0 kts | 55° |
| 2026-05-04 10:44 | 55.41080 | 37.89793 | 575 ft | 12 kts | 146° |
| 2026-05-04 10:45 | 55.41003 | 37.89885 | 569 ft | 14 kts | 145° |
| 2026-05-04 10:45 | 55.40940 | 37.89942 | 570 ft | 10 kts | 187° |
| 2026-05-04 10:45 | 55.40903 | 37.89858 | 576 ft | 8 kts | 235° |
| 2026-05-04 10:45 | 55.40855 | 37.89743 | 568 ft | 15 kts | 234° |
| 2026-05-04 10:46 | 55.40793 | 37.89603 | 571 ft | 12 kts | 210° |
| 2026-05-04 10:46 | 55.40728 | 37.89507 | 572 ft | 13 kts | 234° |
| 2026-05-04 10:46 | 55.40679 | 37.89382 | 572 ft | 10 kts | 233° |
| 2026-05-04 10:46 | 55.40616 | 37.89372 | 575 ft | 10 kts | 150° |
| 2026-05-04 10:47 | 55.40557 | 37.89445 | 567 ft | 12 kts | 146° |
| 2026-05-04 10:47 | 55.40473 | 37.89546 | 568 ft | 16 kts | 146° |
| 2026-05-04 10:47 | 55.40383 | 37.89653 | 565 ft | 16 kts | 146° |
| 2026-05-04 10:47 | 55.40294 | 37.89760 | 562 ft | 16 kts | 146° |
| 2026-05-04 10:49 | 55.39670 | 37.90508 | 545 ft | 13 kts | 146° |
| 2026-05-04 10:49 | 55.39606 | 37.90527 | 544 ft | 9 kts | 207° |
| 2026-05-04 10:50 | 55.39568 | 37.90442 | 545 ft | 9 kts | 236° |
| 2026-05-04 10:51 | 55.41579 | 37.87848 | 1027 ft | 161 kts | 324° |
| 2026-05-04 10:52 | 55.42456 | 37.86659 | 1887 ft | 157 kts | 310° |
| 2026-05-04 10:52 | 55.43189 | 37.85237 | 2695 ft | 155 kts | 307° |
| 2026-05-04 10:52 | 55.43868 | 37.83694 | 3227 ft | 162 kts | 291° |
| 2026-05-04 10:54 | 55.37307 | 37.85070 | 6778 ft | 257 kts | 147° |
| 2026-05-04 10:54 | 55.35776 | 37.86976 | 7209 ft | 282 kts | 147° |
| 2026-05-04 10:56 | 55.23060 | 38.02570 | 11629 ft | 366 kts | 146° |
| 2026-05-04 10:56 | 55.20950 | 38.05138 | 12378 ft | 371 kts | 146° |
| 2026-05-04 10:56 | 55.18826 | 38.07723 | 13140 ft | 376 kts | 146° |
| 2026-05-04 10:57 | 55.16666 | 38.10351 | 13858 ft | 380 kts | 146° |
| 2026-05-04 10:57 | 55.14484 | 38.13005 | 14539 ft | 384 kts | 146° |
| 2026-05-04 10:57 | 55.12278 | 38.15681 | 15219 ft | 387 kts | 146° |
| 2026-05-04 10:57 | 55.10053 | 38.18374 | 15899 ft | 390 kts | 146° |
| 2026-05-04 10:58 | 55.07810 | 38.21078 | 16571 ft | 394 kts | 146° |
| 2026-05-04 10:58 | 55.05572 | 38.23773 | 17220 ft | 397 kts | 146° |
| 2026-05-04 10:58 | 55.03296 | 38.26514 | 17866 ft | 400 kts | 146° |
| 2026-05-04 10:58 | 55.00991 | 38.29283 | 18488 ft | 403 kts | 146° |
| 2026-05-04 10:59 | 54.98674 | 38.32063 | 19050 ft | 406 kts | 146° |
| 2026-05-04 10:59 | 54.97130 | 38.33914 | 19401 ft | 408 kts | 146° |
| 2026-05-04 10:59 | 54.94781 | 38.36727 | 19946 ft | 411 kts | 145° |
| 2026-05-04 10:59 | 54.92413 | 38.39557 | 20490 ft | 414 kts | 145° |
| 2026-05-04 11:00 | 54.90059 | 38.42362 | 21018 ft | 417 kts | 145° |
| 2026-05-04 11:01 | 54.72878 | 38.62734 | 24352 ft | 438 kts | 145° |
| 2026-05-04 11:02 | 54.70352 | 38.65717 | 24757 ft | 440 kts | 145° |
| 2026-05-04 11:02 | 54.67817 | 38.68711 | 25162 ft | 443 kts | 145° |
| 2026-05-04 11:05 | 54.44287 | 39.31985 | 30125 ft | 469 kts | 117° |
| 2026-05-04 11:06 | 54.42670 | 39.36893 | 30426 ft | 470 kts | 117° |
| 2026-05-04 11:06 | 54.41086 | 39.41719 | 30771 ft | 470 kts | 117° |
| 2026-05-04 11:06 | 54.39486 | 39.46613 | 31114 ft | 470 kts | 117° |
| 2026-05-04 11:06 | 54.37889 | 39.51505 | 31453 ft | 470 kts | 117° |
| 2026-05-04 11:08 | 54.26653 | 39.85702 | 33832 ft | 471 kts | 118° |
| 2026-05-04 11:10 | 54.15331 | 40.19641 | 35852 ft | 470 kts | 119° |
| 2026-05-04 11:12 | 54.03970 | 40.53255 | 36945 ft | 468 kts | 120° |
| 2026-05-04 11:12 | 54.02328 | 40.58063 | 36949 ft | 468 kts | 120° |
| 2026-05-04 11:12 | 53.99050 | 40.67644 | 36951 ft | 468 kts | 120° |
| 2026-05-04 11:13 | 53.95787 | 40.77155 | 36949 ft | 467 kts | 120° |
| 2026-05-04 11:13 | 53.92498 | 40.86703 | 36955 ft | 468 kts | 120° |
| 2026-05-04 11:14 | 53.89207 | 40.96215 | 36963 ft | 468 kts | 120° |
| 2026-05-04 11:16 | 53.75985 | 41.34103 | 36967 ft | 467 kts | 120° |
| 2026-05-04 11:16 | 53.72660 | 41.43538 | 36968 ft | 467 kts | 120° |
| 2026-05-04 11:17 | 53.69335 | 41.52912 | 36972 ft | 467 kts | 121° |
| 2026-05-04 11:19 | 53.55951 | 41.90376 | 36968 ft | 467 kts | 121° |
| 2026-05-04 11:19 | 53.52595 | 41.99658 | 36969 ft | 467 kts | 121° |
| 2026-05-04 11:20 | 53.49215 | 42.08995 | 36973 ft | 467 kts | 121° |
| 2026-05-04 11:20 | 53.45844 | 42.18292 | 36970 ft | 467 kts | 121° |
| 2026-05-04 11:22 | 53.32354 | 42.55345 | 36962 ft | 466 kts | 121° |
| 2026-05-04 11:23 | 53.29022 | 42.64558 | 36972 ft | 466 kts | 121° |
| 2026-05-04 11:25 | 53.17140 | 42.96924 | 36987 ft | 467 kts | 121° |
| 2026-05-04 11:25 | 53.13056 | 43.05188 | 36984 ft | 465 kts | 140° |
| 2026-05-04 11:26 | 53.07633 | 43.10914 | 36982 ft | 463 kts | 157° |
| 2026-05-04 11:27 | 52.87086 | 43.26115 | 37005 ft | 464 kts | 157° |
| 2026-05-04 11:28 | 52.81209 | 43.30429 | 37013 ft | 464 kts | 157° |
| 2026-05-04 11:28 | 52.75291 | 43.34750 | 37017 ft | 464 kts | 157° |
| 2026-05-04 11:29 | 52.69382 | 43.39060 | 37006 ft | 464 kts | 157° |
| 2026-05-04 11:29 | 52.63528 | 43.43338 | 37014 ft | 463 kts | 157° |
| 2026-05-04 11:33 | 52.22305 | 43.73033 | 37002 ft | 461 kts | 158° |
| 2026-05-04 11:33 | 52.16447 | 43.77195 | 37012 ft | 461 kts | 158° |
| 2026-05-04 11:34 | 52.10549 | 43.81377 | 37021 ft | 461 kts | 158° |
| 2026-05-04 11:34 | 52.04694 | 43.85524 | 37018 ft | 461 kts | 158° |
| 2026-05-04 11:35 | 51.98815 | 43.89686 | 37029 ft | 460 kts | 158° |
| 2026-05-04 11:35 | 51.92929 | 43.93823 | 37032 ft | 460 kts | 158° |
| 2026-05-04 11:36 | 51.87035 | 43.97953 | 37028 ft | 460 kts | 158° |
| 2026-05-04 11:36 | 51.81198 | 44.02038 | 37030 ft | 460 kts | 158° |
| 2026-05-04 11:37 | 51.75310 | 44.06146 | 37027 ft | 460 kts | 158° |
| 2026-05-04 11:37 | 51.69454 | 44.10213 | 37021 ft | 459 kts | 158° |
| 2026-05-04 11:38 | 51.63574 | 44.14284 | 37119 ft | 460 kts | 158° |
| 2026-05-04 11:38 | 51.60642 | 44.16311 | 37410 ft | 459 kts | 158° |
| 2026-05-04 11:38 | 51.57707 | 44.18340 | 37688 ft | 458 kts | 158° |
| 2026-05-04 11:39 | 51.54778 | 44.20363 | 37935 ft | 457 kts | 158° |
| 2026-05-04 11:39 | 51.51883 | 44.22364 | 38016 ft | 457 kts | 158° |
| 2026-05-04 11:41 | 51.31434 | 44.36381 | 38020 ft | 456 kts | 158° |
| 2026-05-04 11:41 | 51.25577 | 44.40371 | 38014 ft | 456 kts | 159° |
| 2026-05-04 11:42 | 51.19731 | 44.44333 | 38010 ft | 456 kts | 160° |
| 2026-05-04 11:42 | 51.13659 | 44.46830 | 38014 ft | 453 kts | 170° |
| 2026-05-04 11:43 | 51.07462 | 44.48799 | 38016 ft | 453 kts | 171° |
| 2026-05-04 11:43 | 51.01274 | 44.50751 | 38014 ft | 453 kts | 171° |
| 2026-05-04 11:44 | 50.95075 | 44.52730 | 38019 ft | 453 kts | 171° |
| 2026-05-04 11:44 | 50.89932 | 44.54376 | 38027 ft | 454 kts | 171° |
| 2026-05-04 11:45 | 50.82718 | 44.56669 | 38019 ft | 454 kts | 171° |
| 2026-05-04 11:45 | 50.77572 | 44.58285 | 38034 ft | 453 kts | 171° |
| 2026-05-04 11:46 | 50.71379 | 44.60234 | 38032 ft | 453 kts | 171° |
| 2026-05-04 11:46 | 50.65185 | 44.62192 | 38036 ft | 453 kts | 171° |
| 2026-05-04 11:47 | 50.58995 | 44.64140 | 38038 ft | 453 kts | 171° |
| 2026-05-04 11:47 | 50.52840 | 44.66065 | 38039 ft | 453 kts | 171° |
| 2026-05-04 11:48 | 50.46645 | 44.67990 | 38023 ft | 453 kts | 171° |
| 2026-05-04 11:48 | 50.40457 | 44.69916 | 38035 ft | 453 kts | 172° |
| 2026-05-04 11:49 | 50.34277 | 44.71840 | 38036 ft | 452 kts | 172° |
| 2026-05-04 11:49 | 50.28144 | 44.73741 | 38041 ft | 452 kts | 172° |
| 2026-05-04 11:50 | 50.21963 | 44.75642 | 38040 ft | 452 kts | 172° |
| 2026-05-04 11:50 | 50.15795 | 44.77542 | 38027 ft | 451 kts | 172° |
| 2026-05-04 11:51 | 50.09629 | 44.79428 | 38011 ft | 451 kts | 172° |
| 2026-05-04 11:51 | 50.03502 | 44.81305 | 38020 ft | 451 kts | 172° |
| 2026-05-04 11:52 | 49.97325 | 44.83187 | 38033 ft | 451 kts | 172° |
| 2026-05-04 11:52 | 49.91150 | 44.85075 | 38037 ft | 451 kts | 172° |
| 2026-05-04 11:53 | 49.85028 | 44.86934 | 38033 ft | 451 kts | 172° |
| 2026-05-04 11:53 | 49.78863 | 44.88797 | 38032 ft | 451 kts | 172° |
| 2026-05-04 11:55 | 49.54254 | 44.96207 | 38034 ft | 450 kts | 172° |
| 2026-05-04 11:56 | 49.48110 | 44.98052 | 38031 ft | 449 kts | 172° |
| 2026-05-04 11:56 | 49.42013 | 44.99872 | 38033 ft | 449 kts | 172° |
| 2026-05-04 11:57 | 49.35855 | 45.01698 | 38017 ft | 449 kts | 173° |
| 2026-05-04 11:57 | 49.29711 | 45.03517 | 38013 ft | 449 kts | 173° |
| 2026-05-04 11:58 | 49.23590 | 45.05341 | 38020 ft | 449 kts | 173° |
| 2026-05-04 11:58 | 49.17452 | 45.07155 | 38020 ft | 449 kts | 173° |
| 2026-05-04 11:59 | 49.11306 | 45.08961 | 38018 ft | 449 kts | 173° |
| 2026-05-04 11:59 | 49.05190 | 45.10762 | 38006 ft | 449 kts | 173° |
| 2026-05-04 12:00 | 48.99052 | 45.12567 | 37995 ft | 449 kts | 173° |
| 2026-05-04 12:00 | 48.92948 | 45.14343 | 38013 ft | 448 kts | 173° |
| 2026-05-04 12:01 | 48.86814 | 45.16132 | 38017 ft | 448 kts | 173° |
| 2026-05-04 12:02 | 48.65388 | 45.22351 | 38005 ft | 447 kts | 173° |
| 2026-05-04 12:03 | 48.59274 | 45.24118 | 37999 ft | 447 kts | 172° |
| 2026-05-04 12:03 | 48.53185 | 45.25868 | 37996 ft | 447 kts | 172° |
| 2026-05-04 12:04 | 48.47057 | 45.27625 | 38010 ft | 447 kts | 172° |
| 2026-05-04 12:04 | 48.40967 | 45.29495 | 38010 ft | 449 kts | 166° |
| 2026-05-04 12:05 | 48.35235 | 45.33239 | 38005 ft | 453 kts | 157° |
| 2026-05-04 12:05 | 48.29604 | 45.37415 | 38003 ft | 452 kts | 157° |
| 2026-05-04 12:06 | 48.23942 | 45.41576 | 38015 ft | 451 kts | 157° |
| 2026-05-04 12:06 | 48.18299 | 45.45695 | 38028 ft | 449 kts | 157° |
| 2026-05-04 12:07 | 48.12716 | 45.49774 | 38025 ft | 448 kts | 157° |
| 2026-05-04 12:07 | 48.07112 | 45.53862 | 38013 ft | 447 kts | 157° |
| 2026-05-04 12:08 | 48.01521 | 45.57927 | 38018 ft | 445 kts | 158° |
| 2026-05-04 12:08 | 47.95964 | 45.61956 | 38017 ft | 445 kts | 158° |
| 2026-05-04 12:09 | 47.90391 | 45.65985 | 38011 ft | 444 kts | 158° |
| 2026-05-04 12:09 | 47.84821 | 45.70002 | 38002 ft | 444 kts | 158° |
| 2026-05-04 12:10 | 47.79290 | 45.73984 | 38012 ft | 443 kts | 158° |
| 2026-05-04 12:10 | 47.73754 | 45.77967 | 37666 ft | 440 kts | 157° |
| 2026-05-04 12:11 | 47.71000 | 45.79944 | 37394 ft | 438 kts | 158° |
| 2026-05-04 12:11 | 47.68244 | 45.81916 | 37124 ft | 438 kts | 158° |
| 2026-05-04 12:11 | 47.65501 | 45.83877 | 36847 ft | 437 kts | 158° |
| 2026-05-04 12:11 | 47.62753 | 45.85837 | 36584 ft | 437 kts | 158° |
| 2026-05-04 12:12 | 47.60037 | 45.87775 | 36327 ft | 437 kts | 158° |
| 2026-05-04 12:12 | 47.57296 | 45.89729 | 36069 ft | 436 kts | 158° |
| 2026-05-04 12:12 | 47.54550 | 45.91687 | 35813 ft | 436 kts | 158° |
| 2026-05-04 12:12 | 47.51856 | 45.93606 | 35574 ft | 436 kts | 158° |
| 2026-05-04 12:13 | 47.49124 | 45.95544 | 35322 ft | 435 kts | 158° |
| 2026-05-04 12:14 | 47.29968 | 46.09081 | 31725 ft | 436 kts | 158° |
| 2026-05-04 12:15 | 47.27247 | 46.11004 | 31102 ft | 431 kts | 157° |
| 2026-05-04 12:15 | 47.24546 | 46.12912 | 30487 ft | 427 kts | 157° |
| 2026-05-04 12:15 | 47.21874 | 46.14792 | 29857 ft | 423 kts | 157° |
| 2026-05-04 12:15 | 47.19267 | 46.16616 | 29239 ft | 417 kts | 157° |
| 2026-05-04 12:16 | 47.16663 | 46.18436 | 28663 ft | 412 kts | 157° |
| 2026-05-04 12:16 | 47.14083 | 46.20238 | 28070 ft | 407 kts | 157° |
| 2026-05-04 12:16 | 47.11529 | 46.22024 | 27503 ft | 403 kts | 157° |
| 2026-05-04 12:16 | 47.09008 | 46.23790 | 26952 ft | 399 kts | 157° |
| 2026-05-04 12:17 | 47.06615 | 46.25761 | 26386 ft | 398 kts | 148° |
| 2026-05-04 12:17 | 47.04491 | 46.28363 | 25809 ft | 398 kts | 137° |
| 2026-05-04 12:17 | 47.02738 | 46.31516 | 25226 ft | 400 kts | 126° |
| 2026-05-04 12:17 | 47.01257 | 46.34955 | 24672 ft | 398 kts | 125° |
| 2026-05-04 12:18 | 46.99781 | 46.38379 | 24133 ft | 395 kts | 125° |
| 2026-05-04 12:18 | 46.98307 | 46.41776 | 23600 ft | 393 kts | 125° |
| 2026-05-04 12:18 | 46.96840 | 46.45140 | 23024 ft | 390 kts | 126° |
| 2026-05-04 12:18 | 46.95404 | 46.48429 | 22529 ft | 386 kts | 126° |
| 2026-05-04 12:19 | 46.93965 | 46.51721 | 22030 ft | 382 kts | 125° |
| 2026-05-04 12:19 | 46.92533 | 46.54998 | 21531 ft | 379 kts | 125° |
| 2026-05-04 12:19 | 46.91118 | 46.58232 | 21030 ft | 377 kts | 126° |
| 2026-05-04 12:19 | 46.89709 | 46.61451 | 20520 ft | 375 kts | 126° |
| 2026-05-04 12:20 | 46.88300 | 46.64663 | 20008 ft | 373 kts | 125° |
| 2026-05-04 12:20 | 46.86900 | 46.67853 | 19488 ft | 372 kts | 125° |
| 2026-05-04 12:20 | 46.85503 | 46.71033 | 18960 ft | 372 kts | 126° |
| 2026-05-04 12:20 | 46.84104 | 46.74211 | 18417 ft | 372 kts | 125° |
| 2026-05-04 12:21 | 46.82702 | 46.77388 | 17846 ft | 372 kts | 124° |
| 2026-05-04 12:21 | 46.81302 | 46.80560 | 17300 ft | 370 kts | 125° |
| 2026-05-04 12:21 | 46.79914 | 46.83703 | 16783 ft | 368 kts | 125° |
| 2026-05-04 12:21 | 46.78531 | 46.86839 | 16247 ft | 366 kts | 125° |
| 2026-05-04 12:22 | 46.77173 | 46.89912 | 15753 ft | 364 kts | 124° |
| 2026-05-04 12:22 | 46.75797 | 46.93021 | 15229 ft | 363 kts | 124° |
| 2026-05-04 12:22 | 46.74434 | 46.96103 | 14733 ft | 361 kts | 125° |
| 2026-05-04 12:22 | 46.73074 | 46.99175 | 14213 ft | 359 kts | 124° |
| 2026-05-04 12:23 | 46.71716 | 47.02226 | 13692 ft | 358 kts | 124° |
| 2026-05-04 12:23 | 46.70362 | 47.05263 | 13129 ft | 356 kts | 124° |
| 2026-05-04 12:23 | 46.68928 | 47.08171 | 12607 ft | 352 kts | 131° |
| 2026-05-04 12:23 | 46.67334 | 47.10850 | 12087 ft | 348 kts | 131° |
| 2026-05-04 12:24 | 46.65769 | 47.13476 | 11576 ft | 346 kts | 131° |
| 2026-05-04 12:24 | 46.64189 | 47.16119 | 11024 ft | 343 kts | 131° |
| 2026-05-04 12:24 | 46.62622 | 47.18735 | 10512 ft | 341 kts | 130° |
| 2026-05-04 12:24 | 46.61077 | 47.21313 | 10237 ft | 331 kts | 130° |
| 2026-05-04 12:25 | 46.59609 | 47.23767 | 10112 ft | 317 kts | 130° |
| 2026-05-04 12:25 | 46.58189 | 47.26142 | 9988 ft | 305 kts | 130° |
| 2026-05-04 12:25 | 46.56825 | 47.28423 | 9842 ft | 294 kts | 130° |
| 2026-05-04 12:25 | 46.55509 | 47.30624 | 9542 ft | 289 kts | 130° |
| 2026-05-04 12:26 | 46.54191 | 47.32832 | 9141 ft | 288 kts | 130° |
| 2026-05-04 12:26 | 46.52883 | 47.35021 | 8789 ft | 285 kts | 130° |
| 2026-05-04 12:26 | 46.51586 | 47.37183 | 8382 ft | 283 kts | 130° |
| 2026-05-04 12:26 | 46.50291 | 47.39332 | 7978 ft | 281 kts | 130° |
| 2026-05-04 12:27 | 46.49006 | 47.41464 | 7576 ft | 279 kts | 129° |
| 2026-05-04 12:27 | 46.47753 | 47.43544 | 7233 ft | 275 kts | 129° |
| 2026-05-04 12:27 | 46.46495 | 47.45626 | 6884 ft | 272 kts | 129° |
| 2026-05-04 12:27 | 46.45256 | 47.47674 | 6442 ft | 268 kts | 129° |
| 2026-05-04 12:28 | 46.41945 | 47.53162 | 4767 ft | 266 kts | 129° |
| 2026-05-04 12:28 | 46.40733 | 47.55172 | 4152 ft | 264 kts | 129° |
| 2026-05-04 12:29 | 46.39133 | 47.57818 | 3320 ft | 263 kts | 128° |
| 2026-05-04 12:29 | 46.38317 | 47.59165 | 2904 ft | 263 kts | 128° |
| 2026-05-04 12:29 | 46.37136 | 47.61110 | 2631 ft | 249 kts | 128° |
| 2026-05-04 12:29 | 46.36031 | 47.62919 | 2509 ft | 231 kts | 128° |
| 2026-05-04 12:30 | 46.35006 | 47.64598 | 2400 ft | 214 kts | 128° |
| 2026-05-04 12:30 | 46.34036 | 47.66193 | 2308 ft | 210 kts | 128° |
| 2026-05-04 12:30 | 46.33074 | 47.67777 | 2217 ft | 209 kts | 127° |
| 2026-05-04 12:30 | 46.32113 | 47.69362 | 2125 ft | 210 kts | 127° |
| 2026-05-04 12:31 | 46.31172 | 47.70941 | 2033 ft | 209 kts | 122° |
| 2026-05-04 12:31 | 46.30598 | 47.72779 | 1976 ft | 194 kts | 97° |
| 2026-05-04 12:31 | 46.30432 | 47.74674 | 1981 ft | 187 kts | 93° |
| 2026-05-04 12:31 | 46.30286 | 47.76528 | 1979 ft | 184 kts | 93° |
| 2026-05-04 12:32 | 46.30139 | 47.78370 | 1997 ft | 182 kts | 94° |
| 2026-05-04 12:32 | 46.29861 | 47.81791 | 2003 ft | 163 kts | 93° |
| 2026-05-04 12:32 | 46.29731 | 47.83407 | 1985 ft | 159 kts | 93° |
| 2026-05-04 12:33 | 46.29606 | 47.84944 | 1869 ft | 147 kts | 93° |
| 2026-05-04 12:33 | 46.29479 | 47.86506 | 1682 ft | 137 kts | 93° |
| 2026-05-04 12:33 | 46.29369 | 47.87859 | 1511 ft | 134 kts | 93° |
| 2026-05-04 12:33 | 46.29262 | 47.89184 | 1333 ft | 131 kts | 92° |
| 2026-05-04 12:34 | 46.29156 | 47.90486 | 1151 ft | 133 kts | 92° |
| 2026-05-04 12:34 | 46.29047 | 47.91816 | 978 ft | 133 kts | 94° |
| 2026-05-04 12:34 | 46.28940 | 47.93139 | 813 ft | 131 kts | 93° |
| 2026-05-04 12:34 | 46.28835 | 47.94427 | 618 ft | 131 kts | 92° |
| 2026-05-04 12:35 | 46.28729 | 47.95728 | 411 ft | 129 kts | 93° |
| 2026-05-04 12:35 | 46.28624 | 47.97018 | 253 ft | 130 kts | 94° |
| 2026-05-04 12:35 | 46.28518 | 47.98324 | 59 ft | 130 kts | 94° |
| 2026-05-04 12:35 | 46.28407 | 47.99616 | -69 ft | 122 kts | 95° |
| 2026-05-04 12:36 | 46.28327 | 48.00617 | -71 ft | 78 kts | 96° |
| 2026-05-04 12:36 | 46.28283 | 48.01146 | -74 ft | 30 kts | 96° |
| 2026-05-04 12:36 | 46.28256 | 48.01295 | -70 ft | 7 kts | 121° |
| 2026-05-04 12:36 | 46.28267 | 48.01303 | -72 ft | 6 kts | 319° |
| 2026-05-04 12:37 | 46.28276 | 48.01238 | -65 ft | 7 kts | 277° |
| 2026-05-04 12:37 | 46.28283 | 48.01149 | -74 ft | 13 kts | 277° |
| 2026-05-04 12:37 | 46.28294 | 48.01023 | -74 ft | 14 kts | 277° |
| 2026-05-04 12:37 | 46.28306 | 48.00871 | -71 ft | 15 kts | 277° |
| 2026-05-04 12:38 | 46.28317 | 48.00730 | -73 ft | 15 kts | 276° |
| 2026-05-04 12:38 | 46.28331 | 48.00545 | -70 ft | 22 kts | 277° |
| 2026-05-04 12:38 | 46.28352 | 48.00312 | -71 ft | 24 kts | 277° |
| 2026-05-04 12:38 | 46.28368 | 48.00119 | -70 ft | 15 kts | 277° |
| 2026-05-04 12:39 | 46.28401 | 48.00052 | -67 ft | 7 kts | 353° |
| 2026-05-04 12:39 | 46.28454 | 48.00060 | -64 ft | 9 kts | 6° |
| 2026-05-04 12:39 | 46.28515 | 48.00070 | -66 ft | 8 kts | 7° |
| 2026-05-04 12:39 | 46.28571 | 48.00079 | -65 ft | 4 kts | 6° |
| 2026-05-04 12:40 | 46.28604 | 48.00065 | -71 ft | 7 kts | 313° |
| 2026-05-04 12:40 | 46.28614 | 48.00007 | -69 ft | 3 kts | 277° |
| 2026-05-04 12:40 | 46.28617 | 47.99980 | -71 ft | 2 kts | 283° |
| 2026-05-04 12:40 | 46.28623 | 47.99977 | -71 ft | 0 kts | 337° |
| 2026-05-04 12:41 | 46.28639 | 47.99990 | -71 ft | 2 kts | 41° |
| 2026-05-04 12:41 | 46.28654 | 48.00018 | -67 ft | 2 kts | 52° |
| 2026-05-04 12:41 | 46.28660 | 48.00029 | -66 ft | 0 kts | 52° |